createdAt,value
2017-10-22T00:00:11.003Z,11.51
2017-10-22T00:01:10.983Z,11.46
2017-10-22T00:02:10.946Z,11.54
2017-10-22T00:03:10.929Z,11.45
2017-10-22T00:04:10.907Z,11.41
2017-10-22T00:05:10.878Z,11.42
2017-10-22T00:06:10.867Z,11.42
2017-10-22T00:07:10.831Z,11.45
2017-10-22T00:08:10.824Z,11.33
2017-10-22T00:09:10.467Z,11.44
2017-10-22T00:10:10.759Z,11.44
2017-10-22T00:11:10.750Z,11.35
2017-10-22T00:12:10.714Z,11.42
2017-10-22T00:13:10.690Z,11.39
2017-10-22T00:14:10.353Z,11.36
2017-10-22T00:15:10.657Z,11.44
2017-10-22T00:16:10.633Z,11.28
2017-10-22T00:17:10.610Z,11.35
2017-10-22T00:18:10.575Z,11.38
2017-10-22T00:19:10.255Z,11.41
2017-10-22T00:20:10.540Z,11.27
2017-10-22T00:21:10.509Z,11.38
2017-10-22T00:22:10.509Z,11.35
2017-10-22T00:23:10.462Z,11.39
2017-10-22T00:24:10.478Z,11.27
2017-10-22T00:25:10.420Z,11.24
2017-10-22T00:26:10.394Z,11.35
2017-10-22T00:27:10.364Z,11.36
2017-10-22T00:28:10.350Z,11.26
2017-10-22T00:29:10.321Z,11.27
2017-10-22T00:30:10.307Z,11.3
2017-10-22T00:31:10.286Z,11.31
2017-10-22T00:32:10.254Z,11.31
2017-10-22T00:33:10.228Z,11.17
2017-10-22T00:34:10.209Z,11.24
2017-10-22T00:35:10.201Z,11.16
2017-10-22T00:36:10.161Z,11.26
2017-10-22T00:37:10.136Z,11.13
2017-10-22T00:38:10.117Z,11.27
2017-10-22T00:39:09.769Z,11.23
2017-10-22T00:40:10.076Z,11.24
2017-10-22T00:41:10.058Z,11.19
2017-10-22T00:42:10.031Z,11.23
2017-10-22T00:43:09.995Z,11.17
2017-10-22T00:44:09.974Z,11.16
2017-10-22T00:45:09.646Z,11.16
2017-10-22T00:46:09.935Z,11.17
2017-10-22T00:47:09.902Z,11.08
2017-10-22T00:48:09.895Z,11.11
2017-10-22T00:49:09.854Z,11.05
2017-10-22T00:50:09.838Z,11.03
2017-10-22T00:51:09.804Z,11.17
2017-10-22T00:52:09.786Z,11.11
2017-10-22T00:53:09.768Z,11.05
2017-10-22T00:54:09.425Z,11.03
2017-10-22T00:55:09.721Z,11.05
2017-10-22T00:56:09.697Z,11.06
2017-10-22T00:57:09.686Z,11.09
2017-10-22T00:58:09.335Z,11.05
2017-10-22T00:59:09.633Z,11.02
2017-10-22T01:00:09.301Z,10.99
2017-10-22T01:01:09.574Z,11.01
2017-10-22T01:02:09.555Z,10.93
2017-10-22T01:03:09.543Z,11.03
2017-10-22T01:04:09.511Z,11.02
2017-10-22T01:05:09.506Z,10.98
2017-10-22T01:06:09.470Z,10.98
2017-10-22T01:07:09.446Z,10.98
2017-10-22T01:08:09.425Z,10.98
2017-10-22T01:09:09.413Z,10.95
2017-10-22T01:10:09.381Z,11.01
2017-10-22T01:11:09.401Z,10.99
2017-10-22T01:12:09.325Z,10.98
2017-10-22T01:13:09.302Z,10.95
2017-10-22T01:14:09.285Z,10.98
2017-10-22T01:15:08.936Z,10.91
2017-10-22T01:16:09.231Z,10.98
2017-10-22T01:17:09.213Z,10.95
2017-10-22T01:18:08.862Z,10.9
2017-10-22T01:19:09.185Z,10.95
2017-10-22T01:20:09.139Z,10.95
2017-10-22T01:21:09.125Z,10.98
2017-10-22T01:22:09.109Z,10.95
2017-10-22T01:23:09.077Z,10.94
2017-10-22T01:24:09.050Z,10.8
2017-10-22T01:25:09.032Z,10.95
2017-10-22T01:26:09.002Z,10.93
2017-10-22T01:27:08.972Z,10.99
2017-10-22T01:28:08.954Z,10.93
2017-10-22T01:29:08.923Z,10.94
2017-10-22T01:30:08.909Z,10.98
2017-10-22T01:31:08.892Z,11.03
2017-10-22T01:32:09.213Z,10.91
2017-10-22T01:33:08.834Z,10.86
2017-10-22T01:34:08.812Z,10.95
2017-10-22T01:35:08.783Z,10.95
2017-10-22T01:36:08.770Z,11.02
2017-10-22T01:37:08.744Z,11.01
2017-10-22T01:38:08.722Z,10.9
2017-10-22T01:39:08.684Z,10.93
2017-10-22T01:40:08.675Z,10.9
2017-10-22T01:41:08.655Z,10.88
2017-10-22T01:42:08.620Z,10.99
2017-10-22T01:43:08.600Z,11.01
2017-10-22T01:44:08.577Z,10.93
2017-10-22T01:45:08.550Z,10.88
2017-10-22T01:46:08.542Z,10.87
2017-10-22T01:47:08.506Z,10.98
2017-10-22T01:48:08.488Z,10.86
2017-10-22T01:49:08.465Z,10.94
2017-10-22T01:50:08.434Z,10.91
2017-10-22T01:51:08.411Z,10.9
2017-10-22T01:52:08.401Z,10.94
2017-10-22T01:53:08.363Z,10.9
2017-10-22T01:54:08.344Z,10.8
2017-10-22T01:55:08.336Z,10.78
2017-10-22T01:56:08.303Z,10.81
2017-10-22T01:57:08.274Z,10.83
2017-10-22T01:58:08.260Z,10.76
2017-10-22T01:59:08.242Z,10.8
2017-10-22T02:00:08.205Z,10.78
2017-10-22T02:01:08.183Z,10.87
2017-10-22T02:02:08.159Z,10.86
2017-10-22T02:03:08.133Z,10.86
2017-10-22T02:04:08.117Z,10.8
2017-10-22T02:05:08.090Z,10.73
2017-10-22T02:06:08.063Z,10.83
2017-10-22T02:07:08.043Z,10.88
2017-10-22T02:08:08.029Z,10.88
2017-10-22T02:09:08.008Z,10.81
2017-10-22T02:10:07.984Z,10.87
2017-10-22T02:11:07.949Z,10.84
2017-10-22T02:12:07.934Z,10.86
2017-10-22T02:13:07.903Z,10.84
2017-10-22T02:14:07.882Z,10.87
2017-10-22T02:15:07.859Z,10.84
2017-10-22T02:16:07.832Z,10.86
2017-10-22T02:17:07.805Z,10.83
2017-10-22T02:18:07.781Z,10.76
2017-10-22T02:19:07.757Z,10.78
2017-10-22T02:20:07.738Z,10.8
2017-10-22T02:21:07.713Z,10.8
2017-10-22T02:22:07.698Z,10.84
2017-10-22T02:23:07.676Z,10.87
2017-10-22T02:24:07.644Z,10.83
2017-10-22T02:25:07.304Z,10.73
2017-10-22T02:26:07.277Z,10.8
2017-10-22T02:27:07.574Z,10.7
2017-10-22T02:28:07.555Z,10.7
2017-10-22T02:29:07.530Z,10.68
2017-10-22T02:30:07.524Z,10.66
2017-10-22T02:31:07.488Z,10.69
2017-10-22T02:32:07.465Z,10.75
2017-10-22T02:33:07.437Z,10.66
2017-10-22T02:34:07.410Z,10.68
2017-10-22T02:35:07.392Z,10.62
2017-10-22T02:36:07.377Z,10.63
2017-10-22T02:37:07.337Z,10.69
2017-10-22T02:38:07.312Z,10.57
2017-10-22T02:39:06.975Z,10.66
2017-10-22T02:40:07.264Z,10.68
2017-10-22T02:41:07.244Z,10.6
2017-10-22T02:42:07.229Z,10.63
2017-10-22T02:43:07.196Z,10.78
2017-10-22T02:44:07.173Z,10.72
2017-10-22T02:45:07.149Z,10.72
2017-10-22T02:46:06.803Z,10.7
2017-10-22T02:47:07.453Z,10.75
2017-10-22T02:48:06.758Z,10.76
2017-10-22T02:49:07.071Z,10.78
2017-10-22T02:50:07.036Z,10.81
2017-10-22T02:51:07.010Z,10.76
2017-10-22T02:52:06.992Z,10.9
2017-10-22T02:53:06.961Z,10.88
2017-10-22T02:54:06.944Z,10.88
2017-10-22T02:55:06.925Z,11.01
2017-10-22T02:56:06.891Z,10.98
2017-10-22T02:57:06.552Z,10.93
2017-10-22T02:58:06.842Z,11.01
2017-10-22T02:59:06.840Z,11.08
2017-10-22T03:00:06.820Z,11.09
2017-10-22T03:01:07.392Z,11.16
2017-10-22T03:02:06.764Z,11.12
2017-10-22T03:03:06.733Z,11.21
2017-10-22T03:04:06.728Z,11.13
2017-10-22T03:05:06.687Z,11.23
2017-10-22T03:06:06.670Z,11.19
2017-10-22T03:07:06.636Z,11.2
2017-10-22T03:08:06.627Z,11.27
2017-10-22T03:09:06.594Z,11.2
2017-10-22T03:10:06.565Z,11.19
2017-10-22T03:11:06.557Z,11.2
2017-10-22T03:12:06.516Z,11.16
2017-10-22T03:13:06.533Z,11.19
2017-10-22T03:14:06.476Z,11.24
2017-10-22T03:15:06.451Z,11.26
2017-10-22T03:16:06.108Z,11.36
2017-10-22T03:17:06.405Z,11.26
2017-10-22T03:18:06.391Z,11.41
2017-10-22T03:19:06.352Z,11.41
2017-10-22T03:20:06.331Z,11.31
2017-10-22T03:21:06.336Z,11.36
2017-10-22T03:22:06.290Z,11.33
2017-10-22T03:23:06.273Z,11.3
2017-10-22T03:24:06.237Z,11.39
2017-10-22T03:25:06.217Z,11.41
2017-10-22T03:26:06.205Z,11.48
2017-10-22T03:27:06.168Z,11.41
2017-10-22T03:28:06.495Z,11.46
2017-10-22T03:29:06.134Z,11.44
2017-10-22T03:30:06.110Z,11.38
2017-10-22T03:31:06.087Z,11.44
2017-10-22T03:32:06.057Z,11.48
2017-10-22T03:33:06.037Z,11.49
2017-10-22T03:34:06.007Z,11.57
2017-10-22T03:35:05.987Z,11.45
2017-10-22T03:36:05.964Z,11.59
2017-10-22T03:37:06.307Z,11.51
2017-10-22T03:38:05.927Z,11.59
2017-10-22T03:39:05.893Z,11.51
2017-10-22T03:40:05.872Z,11.56
2017-10-22T03:41:05.850Z,11.49
2017-10-22T03:42:05.823Z,11.45
2017-10-22T03:43:05.795Z,11.56
2017-10-22T03:44:05.778Z,11.57
2017-10-22T03:45:05.749Z,11.63
2017-10-22T03:46:05.737Z,11.59
2017-10-22T03:47:05.708Z,11.59
2017-10-22T03:48:05.682Z,11.59
2017-10-22T03:49:05.665Z,11.63
2017-10-22T03:50:05.644Z,11.62
2017-10-22T03:51:05.617Z,11.6
2017-10-22T03:52:05.590Z,11.49
2017-10-22T03:53:05.584Z,11.63
2017-10-22T03:54:05.552Z,11.56
2017-10-22T03:55:05.521Z,11.62
2017-10-22T03:56:05.501Z,11.59
2017-10-22T03:57:05.477Z,11.46
2017-10-22T03:58:05.456Z,11.48
2017-10-22T03:59:05.439Z,11.45
2017-10-22T04:00:05.418Z,11.42
2017-10-22T04:01:05.386Z,11.46
2017-10-22T04:02:05.369Z,11.51
2017-10-22T04:03:05.340Z,11.46
2017-10-22T04:04:05.315Z,11.48
2017-10-22T04:05:05.292Z,11.42
2017-10-22T04:06:05.299Z,11.45
2017-10-22T04:07:05.248Z,11.49
2017-10-22T04:08:05.226Z,11.59
2017-10-22T04:09:05.199Z,11.49
2017-10-22T04:10:05.174Z,11.39
2017-10-22T04:11:05.155Z,11.46
2017-10-22T04:12:05.149Z,11.49
2017-10-22T04:13:04.785Z,11.46
2017-10-22T04:14:05.088Z,11.48
2017-10-22T04:15:05.060Z,11.48
2017-10-22T04:16:05.039Z,11.56
2017-10-22T04:17:05.014Z,11.49
2017-10-22T04:18:04.997Z,11.49
2017-10-22T04:19:04.967Z,11.53
2017-10-22T04:20:04.941Z,11.53
2017-10-22T04:21:04.921Z,11.56
2017-10-22T04:22:04.895Z,11.56
2017-10-22T04:23:04.878Z,11.45
2017-10-22T04:24:04.853Z,11.45
2017-10-22T04:25:04.834Z,11.48
2017-10-22T04:26:04.805Z,11.44
2017-10-22T04:27:04.782Z,11.44
2017-10-22T04:28:04.764Z,11.53
2017-10-22T04:29:04.416Z,11.48
2017-10-22T04:30:04.714Z,11.49
2017-10-22T04:31:04.689Z,11.48
2017-10-22T04:32:04.667Z,11.46
2017-10-22T04:33:04.642Z,11.41
2017-10-22T04:34:04.624Z,11.45
2017-10-22T04:35:04.596Z,11.53
2017-10-22T04:36:04.581Z,11.41
2017-10-22T04:37:04.553Z,11.36
2017-10-22T04:38:04.540Z,11.44
2017-10-22T04:39:04.505Z,11.38
2017-10-22T04:40:04.484Z,11.38
2017-10-22T04:41:04.454Z,11.36
2017-10-22T04:42:04.431Z,11.38
2017-10-22T04:43:04.406Z,11.36
2017-10-22T04:44:04.392Z,11.44
2017-10-22T04:45:04.361Z,11.28
2017-10-22T04:46:04.342Z,11.33
2017-10-22T04:47:04.005Z,11.33
2017-10-22T04:48:04.292Z,11.38
2017-10-22T04:49:04.278Z,11.41
2017-10-22T04:50:04.247Z,11.36
2017-10-22T04:51:04.226Z,11.41
2017-10-22T04:52:04.205Z,11.36
2017-10-22T04:53:04.178Z,11.39
2017-10-22T04:54:04.152Z,11.24
2017-10-22T04:55:04.138Z,11.35
2017-10-22T04:56:04.110Z,11.23
2017-10-22T04:57:04.090Z,11.28
2017-10-22T04:58:04.067Z,11.3
2017-10-22T04:59:04.047Z,11.3
2017-10-22T05:00:04.027Z,11.16
2017-10-22T05:01:03.992Z,11.23
2017-10-22T05:02:03.975Z,11.33
2017-10-22T05:03:03.641Z,11.17
2017-10-22T05:04:03.938Z,11.19
2017-10-22T05:05:03.909Z,11.2
2017-10-22T05:06:03.878Z,11.21
2017-10-22T05:07:03.864Z,11.09
2017-10-22T05:08:03.841Z,11.13
2017-10-22T05:09:03.818Z,11.08
2017-10-22T05:10:03.790Z,11.12
2017-10-22T05:11:03.769Z,11.06
2017-10-22T05:12:03.749Z,11.03
2017-10-22T05:13:03.717Z,11.06
2017-10-22T05:14:03.694Z,10.94
2017-10-22T05:15:03.673Z,10.99
2017-10-22T05:16:03.649Z,10.83
2017-10-22T05:17:03.624Z,10.94
2017-10-22T05:18:03.603Z,10.84
2017-10-22T05:19:03.584Z,10.78
2017-10-22T05:20:03.569Z,10.86
2017-10-22T05:21:03.535Z,10.8
2017-10-22T05:22:03.522Z,10.72
2017-10-22T05:23:03.481Z,10.73
2017-10-22T05:24:03.463Z,10.72
2017-10-22T05:25:03.468Z,10.65
2017-10-22T05:26:03.416Z,10.55
2017-10-22T05:27:03.402Z,10.58
2017-10-22T05:28:03.365Z,10.65
2017-10-22T05:29:03.344Z,10.6
2017-10-22T05:30:03.317Z,10.63
2017-10-22T05:31:03.304Z,10.51
2017-10-22T05:32:03.276Z,10.47
2017-10-22T05:33:03.248Z,10.52
2017-10-22T05:34:03.230Z,10.49
2017-10-22T05:35:03.209Z,10.42
2017-10-22T05:36:03.175Z,10.43
2017-10-22T05:37:03.150Z,10.35
2017-10-22T05:38:03.136Z,10.43
2017-10-22T05:39:03.120Z,10.35
2017-10-22T05:40:03.074Z,10.34
2017-10-22T05:41:03.404Z,10.28
2017-10-22T05:42:03.056Z,10.18
2017-10-22T05:43:03.011Z,10.13
2017-10-22T05:44:02.991Z,10.24
2017-10-22T05:45:02.646Z,10.17
2017-10-22T05:46:02.939Z,10.1
2017-10-22T05:47:02.913Z,10.07
2017-10-22T05:48:02.895Z,9.99
2017-10-22T05:49:02.546Z,10.1
2017-10-22T05:50:02.838Z,10.06
2017-10-22T05:51:02.508Z,9.95
2017-10-22T05:52:02.794Z,9.91
2017-10-22T05:53:02.786Z,9.98
2017-10-22T05:54:02.764Z,9.85
2017-10-22T05:55:02.743Z,9.83
2017-10-22T05:56:02.705Z,9.8
2017-10-22T05:57:02.678Z,9.77
2017-10-22T05:58:02.651Z,9.74
2017-10-22T05:59:02.308Z,9.7
2017-10-22T06:00:02.303Z,9.7
2017-10-22T06:01:02.592Z,9.71
2017-10-22T06:02:02.563Z,9.63
2017-10-22T06:03:02.219Z,9.63
2017-10-22T06:04:02.520Z,9.62
2017-10-22T06:05:02.500Z,9.53
2017-10-22T06:06:02.469Z,9.52
2017-10-22T06:07:02.450Z,9.56
2017-10-22T06:08:02.418Z,9.56
2017-10-22T06:09:02.069Z,9.49
2017-10-22T06:10:02.368Z,9.45
2017-10-22T06:11:02.358Z,9.55
2017-10-22T06:12:02.320Z,9.49
2017-10-22T06:13:02.300Z,9.53
2017-10-22T06:14:02.274Z,9.5
2017-10-22T06:15:02.602Z,9.5
2017-10-22T06:16:03.662Z,9.52
2017-10-22T06:17:02.316Z,9.49
2017-10-22T06:18:02.211Z,9.49
2017-10-22T06:19:02.167Z,9.52
2017-10-22T06:20:02.183Z,9.53
2017-10-22T06:21:02.472Z,9.44
2017-10-22T06:22:02.110Z,9.49
2017-10-22T06:23:02.095Z,9.44
2017-10-22T06:24:02.160Z,9.4
2017-10-22T06:25:02.050Z,9.42
2017-10-22T06:26:01.993Z,9.42
2017-10-22T06:27:02.119Z,9.31
2017-10-22T06:28:02.536Z,9.44
2017-10-22T06:29:02.602Z,9.37
2017-10-22T06:30:01.924Z,9.44
2017-10-22T06:31:01.875Z,9.49
2017-10-22T06:32:02.176Z,9.44
2017-10-22T06:33:01.913Z,9.45
2017-10-22T06:34:01.828Z,9.45
2017-10-22T06:35:02.982Z,9.37
2017-10-22T06:36:02.097Z,9.4
2017-10-22T06:37:01.733Z,9.4
2017-10-22T06:38:01.701Z,9.37
2017-10-22T06:39:01.885Z,9.45
2017-10-22T06:40:01.720Z,9.41
2017-10-22T06:41:02.064Z,9.3
2017-10-22T06:42:01.283Z,9.44
2017-10-22T06:43:02.020Z,9.41
2017-10-22T06:44:02.494Z,9.48
2017-10-22T06:45:02.368Z,9.32
2017-10-22T06:46:01.517Z,9.41
2017-10-22T06:47:01.483Z,9.41
2017-10-22T06:48:02.491Z,9.4
2017-10-22T06:54:39.203Z,9.5
2017-10-22T06:55:39.276Z,9.53
2017-10-22T06:57:47.778Z,9.49
2017-10-22T09:52:43.784Z,11.05
2017-10-22T09:53:28.479Z,11.02
2017-10-22T09:54:28.134Z,11.02
2017-10-22T09:55:28.435Z,11.03
2017-10-22T09:56:28.401Z,11.01
2017-10-22T09:57:28.386Z,11.05
2017-10-22T09:58:28.491Z,11.06
2017-10-22T09:59:28.350Z,11.11
2017-10-22T10:00:28.311Z,11.09
2017-10-22T10:01:28.289Z,11.12
2017-10-22T10:02:28.263Z,11.08
2017-10-22T10:03:28.250Z,11.09
2017-10-22T10:04:28.222Z,11.06
2017-10-22T10:05:28.201Z,10.93
2017-10-22T10:06:28.181Z,11.01
2017-10-22T10:07:28.156Z,10.99
2017-10-22T10:08:28.141Z,10.95
2017-10-22T10:09:28.106Z,10.98
2017-10-22T10:10:28.083Z,10.91
2017-10-22T10:11:28.410Z,10.99
2017-10-22T10:12:27.721Z,11.02
2017-10-22T10:13:28.009Z,11.01
2017-10-22T10:14:27.990Z,10.84
2017-10-22T10:15:27.971Z,10.95
2017-10-22T10:16:27.955Z,10.93
2017-10-22T10:17:27.926Z,10.91
2017-10-22T10:18:27.904Z,10.87
2017-10-22T10:19:27.554Z,10.88
2017-10-22T10:20:27.852Z,10.93
2017-10-22T10:21:27.837Z,10.9
2017-10-22T10:22:27.802Z,10.87
2017-10-22T10:23:27.798Z,10.9
2017-10-22T10:24:27.759Z,10.9
2017-10-22T10:25:27.755Z,10.86
2017-10-22T10:26:27.709Z,10.95
2017-10-22T10:27:27.704Z,10.84
2017-10-22T10:28:27.665Z,10.88
2017-10-22T10:29:27.649Z,10.84
2017-10-22T10:30:27.632Z,10.83
2017-10-22T10:31:27.596Z,10.8
2017-10-22T10:32:27.569Z,10.78
2017-10-22T10:33:27.550Z,10.83
2017-10-22T10:34:27.533Z,10.84
2017-10-22T10:35:27.507Z,10.86
2017-10-22T10:36:27.492Z,10.83
2017-10-22T10:37:27.463Z,10.84
2017-10-22T10:38:27.429Z,10.84
2017-10-22T10:39:27.414Z,10.73
2017-10-22T10:40:27.433Z,10.83
2017-10-22T10:41:27.361Z,10.83
2017-10-22T10:42:27.329Z,10.8
2017-10-22T10:43:27.315Z,10.8
2017-10-22T10:44:27.293Z,10.78
2017-10-22T10:45:27.270Z,10.78
2017-10-22T10:46:27.247Z,10.8
2017-10-22T10:47:27.226Z,10.8
2017-10-22T10:48:27.205Z,10.84
2017-10-22T10:49:27.175Z,10.8
2017-10-22T10:50:27.155Z,10.9
2017-10-22T10:51:27.133Z,10.81
2017-10-22T10:52:27.115Z,10.9
2017-10-22T10:53:27.085Z,10.75
2017-10-22T10:54:27.052Z,10.87
2017-10-22T10:55:27.036Z,10.83
2017-10-22T10:56:27.007Z,10.83
2017-10-22T10:57:26.667Z,10.86
2017-10-22T10:58:27.000Z,10.98
2017-10-22T10:59:26.935Z,10.94
2017-10-22T11:00:26.913Z,10.84
2017-10-22T11:01:26.890Z,10.95
2017-10-22T11:02:26.883Z,10.98
2017-10-22T11:03:26.854Z,10.95
2017-10-22T11:04:26.820Z,10.94
2017-10-22T11:05:27.152Z,10.95
2017-10-22T11:06:26.780Z,10.98
2017-10-22T11:07:26.757Z,11.05
2017-10-22T11:08:26.737Z,11.02
2017-10-22T11:09:26.713Z,11.06
2017-10-22T11:10:26.681Z,11.03
2017-10-22T11:11:26.666Z,11.16
2017-10-22T11:12:26.646Z,11.06
2017-10-22T11:13:26.618Z,11.08
2017-10-22T11:14:26.654Z,11.03
2017-10-22T11:15:26.577Z,11.09
2017-10-22T11:16:26.566Z,11.09
2017-10-22T11:17:26.204Z,11.06
2017-10-22T11:18:26.501Z,11.13
2017-10-22T11:19:26.159Z,11.13
2017-10-22T11:20:26.460Z,11.12
2017-10-22T11:21:26.433Z,11.23
2017-10-22T11:22:26.764Z,11.2
2017-10-22T11:23:26.388Z,11.2
2017-10-22T11:24:26.355Z,11.2
2017-10-22T11:25:26.022Z,11.16
2017-10-22T11:26:26.004Z,11.19
2017-10-22T11:27:25.974Z,11.17
2017-10-22T11:28:26.266Z,11.26
2017-10-22T11:29:26.272Z,11.35
2017-10-22T11:30:26.238Z,11.2
2017-10-22T11:31:26.210Z,11.28
2017-10-22T11:32:25.851Z,11.35
2017-10-22T11:33:26.159Z,11.33
2017-10-22T11:34:26.136Z,11.39
2017-10-22T11:35:26.122Z,11.31
2017-10-22T11:36:26.090Z,11.39
2017-10-22T11:37:26.062Z,11.24
2017-10-22T11:38:25.723Z,11.28
2017-10-22T11:39:26.024Z,11.24
2017-10-22T11:40:25.995Z,11.27
2017-10-22T11:41:25.998Z,11.28
2017-10-22T11:42:25.954Z,11.35
2017-10-22T11:43:25.598Z,11.24
2017-10-22T11:44:25.902Z,11.3
2017-10-22T11:45:25.883Z,11.26
2017-10-22T11:46:25.890Z,11.3
2017-10-22T11:47:25.839Z,11.31
2017-10-22T11:48:25.825Z,11.28
2017-10-22T11:49:25.471Z,11.35
2017-10-22T11:50:25.772Z,11.27
2017-10-22T11:51:25.424Z,11.26
2017-10-22T11:52:25.397Z,11.27
2017-10-22T11:53:25.699Z,11.3
2017-10-22T11:54:25.679Z,11.26
2017-10-22T11:55:25.651Z,11.33
2017-10-22T11:56:25.310Z,11.27
2017-10-22T11:57:25.597Z,11.33
2017-10-22T11:58:25.582Z,11.24
2017-10-22T11:59:25.564Z,11.38
2017-10-22T12:00:25.539Z,11.21
2017-10-22T12:01:25.521Z,11.24
2017-10-22T12:02:25.496Z,11.17
2017-10-22T12:03:25.483Z,11.24
2017-10-22T12:04:25.116Z,11.24
2017-10-22T12:05:25.418Z,11.13
2017-10-22T12:06:25.404Z,11.19
2017-10-22T12:07:25.363Z,11.19
2017-10-22T12:08:25.362Z,11.17
2017-10-22T12:09:25.328Z,11.17
2017-10-22T12:10:24.989Z,11.19
2017-10-22T12:11:24.963Z,11.2
2017-10-22T12:12:25.256Z,11.2
2017-10-22T12:13:25.266Z,11.36
2017-10-22T12:14:25.206Z,11.44
2017-10-22T12:15:24.881Z,11.39
2017-10-22T12:16:25.176Z,11.53
2017-10-22T12:17:24.501Z,11.48
2017-10-22T12:18:25.125Z,11.46
2017-10-22T12:19:25.094Z,11.54
2017-10-22T12:20:25.090Z,11.63
2017-10-22T12:21:24.731Z,11.7
2017-10-22T12:22:25.024Z,11.7
2017-10-22T12:23:24.682Z,11.84
2017-10-22T12:24:24.670Z,11.93
2017-10-22T12:25:24.646Z,11.88
2017-10-22T12:26:24.951Z,11.97
2017-10-22T12:27:24.918Z,12.16
2017-10-22T12:28:24.892Z,12.08
2017-10-22T12:29:24.864Z,12.11
2017-10-22T12:30:24.855Z,12.19
2017-10-22T12:31:24.831Z,12.13
2017-10-22T12:32:24.806Z,12.19
2017-10-22T12:33:24.810Z,12.22
2017-10-22T12:34:24.749Z,12.33
2017-10-22T12:35:24.743Z,12.38
2017-10-22T12:36:24.389Z,12.55
2017-10-22T12:37:24.722Z,12.52
2017-10-22T12:38:24.355Z,12.66
2017-10-22T12:39:24.649Z,12.7
2017-10-22T12:40:24.622Z,12.7
2017-10-22T12:41:24.607Z,12.74
2017-10-22T12:42:24.571Z,12.92
2017-10-22T12:43:24.547Z,12.88
2017-10-22T12:44:24.542Z,12.85
2017-10-22T12:45:24.508Z,12.88
2017-10-22T12:46:24.483Z,12.94
2017-10-22T12:47:24.152Z,12.88
2017-10-22T12:48:24.444Z,12.88
2017-10-22T12:49:24.418Z,12.89
2017-10-22T12:50:24.408Z,12.92
2017-10-22T12:51:24.385Z,12.84
2017-10-22T12:52:24.353Z,12.88
2017-10-22T12:53:24.342Z,12.88
2017-10-22T12:54:24.314Z,12.88
2017-10-22T12:55:24.309Z,12.88
2017-10-22T12:56:24.273Z,12.88
2017-10-22T12:57:24.248Z,12.91
2017-10-22T12:58:24.217Z,12.88
2017-10-22T12:59:23.879Z,12.89
2017-10-22T13:00:24.197Z,12.98
2017-10-22T13:01:24.153Z,12.92
2017-10-22T13:02:24.142Z,12.89
2017-10-22T13:03:24.113Z,12.89
2017-10-22T13:04:24.096Z,12.85
2017-10-22T13:05:24.064Z,12.84
2017-10-22T13:06:24.042Z,12.87
2017-10-22T13:07:24.041Z,12.84
2017-10-22T13:08:24.013Z,12.76
2017-10-22T13:09:24.331Z,12.8
2017-10-22T13:10:23.956Z,12.76
2017-10-22T13:11:23.953Z,12.73
2017-10-22T13:12:23.910Z,12.69
2017-10-22T13:13:23.904Z,12.67
2017-10-22T13:14:23.872Z,12.63
2017-10-22T13:15:23.846Z,12.67
2017-10-22T13:16:23.505Z,12.66
2017-10-22T13:17:23.801Z,12.58
2017-10-22T13:18:23.458Z,12.48
2017-10-22T13:19:23.762Z,12.41
2017-10-22T13:20:23.744Z,12.4
2017-10-22T13:21:23.722Z,12.43
2017-10-22T13:22:23.700Z,12.43
2017-10-22T13:23:23.670Z,12.54
2017-10-22T13:24:23.645Z,12.58
2017-10-22T13:25:23.621Z,12.54
2017-10-22T13:26:23.603Z,12.55
2017-10-22T13:27:23.260Z,12.56
2017-10-22T13:28:23.559Z,12.58
2017-10-22T13:29:23.209Z,12.58
2017-10-22T13:30:23.513Z,12.62
2017-10-22T13:31:23.483Z,12.63
2017-10-22T13:32:23.465Z,12.59
2017-10-22T13:33:23.449Z,12.67
2017-10-22T13:34:23.427Z,12.62
2017-10-22T13:35:23.455Z,12.66
2017-10-22T13:36:23.376Z,12.67
2017-10-22T13:37:23.359Z,12.63
2017-10-22T13:38:23.337Z,12.66
2017-10-22T13:39:23.325Z,12.7
2017-10-22T13:40:22.966Z,12.7
2017-10-22T13:41:23.284Z,12.76
2017-10-22T13:42:23.239Z,12.73
2017-10-22T13:43:23.226Z,12.73
2017-10-22T13:44:22.883Z,12.74
2017-10-22T13:45:23.185Z,12.66
2017-10-22T13:46:23.150Z,12.73
2017-10-22T13:47:23.128Z,12.66
2017-10-22T13:48:23.114Z,12.76
2017-10-22T13:49:22.763Z,12.73
2017-10-22T13:50:23.068Z,12.73
2017-10-22T13:51:23.056Z,12.74
2017-10-22T13:52:23.028Z,12.7
2017-10-22T13:53:22.686Z,12.71
2017-10-22T13:54:22.971Z,12.66
2017-10-22T13:55:22.956Z,12.69
2017-10-22T13:56:22.290Z,12.63
2017-10-22T13:57:22.913Z,12.69
2017-10-22T13:58:22.888Z,12.69
2017-10-22T13:59:22.222Z,12.59
2017-10-22T14:00:22.846Z,12.58
2017-10-22T14:01:22.818Z,12.61
2017-10-22T14:02:22.821Z,12.55
2017-10-22T14:03:22.775Z,12.52
2017-10-22T14:04:22.760Z,12.55
2017-10-22T14:05:22.728Z,12.54
2017-10-22T14:06:22.717Z,12.54
2017-10-22T14:07:22.693Z,12.43
2017-10-22T14:08:22.666Z,12.4
2017-10-22T14:09:22.633Z,12.41
2017-10-22T14:10:22.617Z,12.43
2017-10-22T14:11:22.592Z,12.43
2017-10-22T14:12:22.577Z,12.41
2017-10-22T14:13:22.556Z,12.41
2017-10-22T14:14:22.529Z,12.52
2017-10-22T14:15:22.510Z,12.44
2017-10-22T14:16:22.486Z,12.46
2017-10-22T14:17:22.451Z,12.46
2017-10-22T14:18:22.436Z,12.46
2017-10-22T14:19:22.427Z,12.41
2017-10-22T14:20:22.395Z,12.44
2017-10-22T14:21:22.360Z,12.46
2017-10-22T14:22:22.344Z,12.4
2017-10-22T14:23:22.321Z,12.41
2017-10-22T14:24:22.307Z,12.4
2017-10-22T14:25:22.278Z,12.4
2017-10-22T14:26:22.274Z,12.43
2017-10-22T14:27:21.925Z,12.41
2017-10-22T14:28:22.215Z,12.41
2017-10-22T14:29:22.179Z,12.44
2017-10-22T14:30:22.171Z,12.4
2017-10-22T14:31:21.840Z,12.43
2017-10-22T14:32:22.131Z,12.4
2017-10-22T14:33:22.097Z,12.36
2017-10-22T14:34:22.078Z,12.37
2017-10-22T14:35:22.048Z,12.34
2017-10-22T14:36:22.041Z,12.31
2017-10-22T14:37:22.012Z,12.33
2017-10-22T14:38:21.997Z,12.26
2017-10-22T14:39:21.643Z,12.31
2017-10-22T14:40:21.619Z,12.36
2017-10-22T14:41:21.599Z,12.3
2017-10-22T14:42:21.579Z,12.34
2017-10-22T14:43:21.563Z,12.33
2017-10-22T14:44:21.540Z,12.23
2017-10-22T14:45:21.195Z,12.21
2017-10-22T14:46:21.502Z,12.21
2017-10-22T14:47:21.468Z,12.22
2017-10-22T14:48:21.444Z,12.11
2017-10-22T14:49:21.101Z,12.18
2017-10-22T14:50:21.721Z,12.19
2017-10-22T14:51:21.689Z,12.07
2017-10-22T14:52:21.670Z,12.12
2017-10-22T14:53:21.642Z,12.05
2017-10-22T14:54:21.626Z,12.08
2017-10-22T14:55:21.608Z,12.07
2017-10-22T14:56:21.584Z,12.11
2017-10-22T14:57:21.243Z,12.04
2017-10-22T14:58:21.541Z,12.03
2017-10-22T14:59:21.525Z,12.05
2017-10-22T15:00:21.502Z,12.13
2017-10-22T15:01:21.151Z,12.07
2017-10-22T15:02:21.126Z,11.97
2017-10-22T15:03:21.416Z,11.94
2017-10-22T15:04:21.398Z,12.01
2017-10-22T15:05:21.374Z,11.98
2017-10-22T15:06:21.383Z,11.97
2017-10-22T15:07:21.341Z,11.94
2017-10-22T15:08:21.308Z,11.98
2017-10-22T15:09:21.289Z,11.93
2017-10-22T15:10:21.282Z,11.94
2017-10-22T15:11:21.239Z,11.9
2017-10-22T15:12:21.227Z,11.84
2017-10-22T15:13:21.199Z,11.93
2017-10-22T15:14:21.169Z,11.98
2017-10-22T15:15:21.151Z,11.9
2017-10-22T15:16:21.165Z,11.87
2017-10-22T15:17:21.106Z,11.87
2017-10-22T15:18:21.076Z,11.81
2017-10-22T15:19:21.051Z,11.84
2017-10-22T15:20:21.026Z,11.78
2017-10-22T15:21:21.019Z,11.75
2017-10-22T15:22:20.353Z,11.69
2017-10-22T15:23:20.972Z,11.78
2017-10-22T15:24:20.949Z,11.78
2017-10-22T15:25:20.593Z,11.69
2017-10-22T15:26:20.888Z,11.56
2017-10-22T15:27:20.867Z,11.54
2017-10-22T15:28:20.906Z,11.63
2017-10-22T15:29:20.826Z,11.59
2017-10-22T15:31:20.795Z,11.62
2017-10-22T15:33:20.415Z,11.59
2017-10-22T15:34:49.907Z,11.53
2017-10-22T15:35:35.278Z,11.48
2017-10-22T15:36:20.665Z,11.51
2017-10-22T15:37:20.653Z,11.41
2017-10-22T15:38:20.623Z,11.39
2017-10-22T15:39:20.599Z,11.36
2017-10-22T15:40:20.584Z,11.38
2017-10-22T15:41:20.548Z,11.39
2017-10-22T15:42:20.532Z,11.44
2017-10-22T15:43:20.180Z,11.39
2017-10-22T15:44:20.477Z,11.48
2017-10-22T15:45:20.146Z,11.41
2017-10-22T15:46:20.434Z,11.39
2017-10-22T15:47:20.411Z,11.45
2017-10-22T15:48:20.070Z,11.45
2017-10-22T15:49:20.050Z,11.39
2017-10-22T15:50:20.358Z,11.46
2017-10-22T15:51:20.323Z,11.39
2017-10-22T15:52:20.309Z,11.38
2017-10-22T15:53:19.960Z,11.39
2017-10-22T15:54:20.263Z,11.33
2017-10-22T15:55:20.255Z,11.41
2017-10-22T15:56:19.894Z,11.36
2017-10-22T15:57:20.201Z,11.35
2017-10-22T15:58:20.165Z,11.41
2017-10-22T15:59:20.145Z,11.28